sensor_id;sensor_type;location;lat;lon;timestamp;P1;durP1;ratioP1;P2;durP2;ratioP2
31798;SDS011;18374;51.136;3.502;2023-04-15T00:02:15;8.05;;;6.30;;
31798;SDS011;18374;51.136;3.502;2023-04-15T00:04:45;7.93;;;5.90;;
31798;SDS011;18374;51.136;3.502;2023-04-15T00:07:13;9.32;;;5.53;;
31798;SDS011;18374;51.136;3.502;2023-04-15T00:09:42;9.10;;;5.95;;
31798;SDS011;18374;51.136;3.502;2023-04-15T00:12:10;8.48;;;5.90;;
31798;SDS011;18374;51.136;3.502;2023-04-15T00:14:38;7.57;;;5.95;;
31798;SDS011;18374;51.136;3.502;2023-04-15T00:17:06;6.80;;;5.25;;
31798;SDS011;18374;51.136;3.502;2023-04-15T00:19:34;9.05;;;6.22;;
31798;SDS011;18374;51.136;3.502;2023-04-15T00:22:02;8.98;;;5.85;;
31798;SDS011;18374;51.136;3.502;2023-04-15T00:24:30;7.78;;;5.28;;
31798;SDS011;18374;51.136;3.502;2023-04-15T00:26:58;7.35;;;4.95;;
31798;SDS011;18374;51.136;3.502;2023-04-15T00:29:26;8.02;;;5.90;;
31798;SDS011;18374;51.136;3.502;2023-04-15T00:31:54;6.53;;;4.97;;
31798;SDS011;18374;51.136;3.502;2023-04-15T00:34:22;7.20;;;5.28;;
31798;SDS011;18374;51.136;3.502;2023-04-15T00:36:50;7.50;;;5.15;;
31798;SDS011;18374;51.136;3.502;2023-04-15T00:39:19;6.40;;;5.50;;
31798;SDS011;18374;51.136;3.502;2023-04-15T00:41:47;7.72;;;5.80;;
31798;SDS011;18374;51.136;3.502;2023-04-15T00:44:15;8.65;;;6.03;;
31798;SDS011;18374;51.136;3.502;2023-04-15T00:46:44;7.47;;;5.28;;
31798;SDS011;18374;51.136;3.502;2023-04-15T00:49:15;6.97;;;5.38;;
31798;SDS011;18374;51.136;3.502;2023-04-15T00:51:44;6.05;;;5.40;;
31798;SDS011;18374;51.136;3.502;2023-04-15T00:54:12;8.65;;;5.50;;
31798;SDS011;18374;51.136;3.502;2023-04-15T00:56:40;7.50;;;5.40;;
31798;SDS011;18374;51.136;3.502;2023-04-15T00:59:08;8.02;;;5.45;;
31798;SDS011;18374;51.136;3.502;2023-04-15T01:01:37;7.13;;;5.10;;
31798;SDS011;18374;51.136;3.502;2023-04-15T01:04:04;9.05;;;5.70;;
31798;SDS011;18374;51.136;3.502;2023-04-15T01:06:33;9.38;;;5.28;;
31798;SDS011;18374;51.136;3.502;2023-04-15T01:09:01;6.90;;;5.13;;
31798;SDS011;18374;51.136;3.502;2023-04-15T01:11:29;8.05;;;5.47;;
31798;SDS011;18374;51.136;3.502;2023-04-15T01:14:01;8.70;;;5.22;;
31798;SDS011;18374;51.136;3.502;2023-04-15T01:16:30;7.78;;;5.75;;
31798;SDS011;18374;51.136;3.502;2023-04-15T01:18:58;7.57;;;5.50;;
31798;SDS011;18374;51.136;3.502;2023-04-15T01:21:27;7.18;;;5.05;;
31798;SDS011;18374;51.136;3.502;2023-04-15T01:23:55;7.28;;;5.35;;
31798;SDS011;18374;51.136;3.502;2023-04-15T01:26:24;7.20;;;5.40;;
31798;SDS011;18374;51.136;3.502;2023-04-15T01:28:53;7.35;;;5.70;;
31798;SDS011;18374;51.136;3.502;2023-04-15T01:31:23;9.68;;;6.07;;
31798;SDS011;18374;51.136;3.502;2023-04-15T01:33:51;8.25;;;6.32;;
31798;SDS011;18374;51.136;3.502;2023-04-15T01:36:19;9.43;;;5.63;;
31798;SDS011;18374;51.136;3.502;2023-04-15T01:38:46;9.05;;;6.22;;
31798;SDS011;18374;51.136;3.502;2023-04-15T01:41:14;10.02;;;5.65;;
31798;SDS011;18374;51.136;3.502;2023-04-15T01:43:43;11.10;;;7.05;;
31798;SDS011;18374;51.136;3.502;2023-04-15T01:46:11;7.72;;;6.28;;
31798;SDS011;18374;51.136;3.502;2023-04-15T01:48:39;9.55;;;6.28;;
31798;SDS011;18374;51.136;3.502;2023-04-15T01:51:07;9.05;;;6.57;;
31798;SDS011;18374;51.136;3.502;2023-04-15T01:53:35;9.45;;;6.20;;
31798;SDS011;18374;51.136;3.502;2023-04-15T01:56:03;11.02;;;5.82;;
31798;SDS011;18374;51.136;3.502;2023-04-15T01:58:31;9.05;;;6.40;;
31798;SDS011;18374;51.136;3.502;2023-04-15T02:00:59;7.50;;;5.68;;
31798;SDS011;18374;51.136;3.502;2023-04-15T02:03:30;8.10;;;6.22;;
31798;SDS011;18374;51.136;3.502;2023-04-15T02:05:59;11.02;;;6.07;;
31798;SDS011;18374;51.136;3.502;2023-04-15T02:08:27;9.80;;;6.72;;
31798;SDS011;18374;51.136;3.502;2023-04-15T02:10:55;7.65;;;6.13;;
31798;SDS011;18374;51.136;3.502;2023-04-15T02:13:24;9.60;;;6.57;;
31798;SDS011;18374;51.136;3.502;2023-04-15T02:15:53;11.90;;;7.13;;
31798;SDS011;18374;51.136;3.502;2023-04-15T02:18:21;10.00;;;7.10;;
31798;SDS011;18374;51.136;3.502;2023-04-15T02:20:50;9.63;;;7.35;;
31798;SDS011;18374;51.136;3.502;2023-04-15T02:23:18;13.05;;;7.70;;
31798;SDS011;18374;51.136;3.502;2023-04-15T02:25:46;13.13;;;8.05;;
31798;SDS011;18374;51.136;3.502;2023-04-15T02:28:20;12.80;;;7.55;;
31798;SDS011;18374;51.136;3.502;2023-04-15T02:30:48;10.60;;;7.28;;
31798;SDS011;18374;51.136;3.502;2023-04-15T02:33:19;11.80;;;8.00;;
31798;SDS011;18374;51.136;3.502;2023-04-15T02:35:47;11.50;;;7.75;;
31798;SDS011;18374;51.136;3.502;2023-04-15T02:38:15;11.55;;;8.07;;
31798;SDS011;18374;51.136;3.502;2023-04-15T02:40:44;11.38;;;7.68;;
31798;SDS011;18374;51.136;3.502;2023-04-15T02:43:12;12.23;;;8.70;;
31798;SDS011;18374;51.136;3.502;2023-04-15T02:45:40;11.75;;;8.07;;
31798;SDS011;18374;51.136;3.502;2023-04-15T02:48:09;12.05;;;7.70;;
31798;SDS011;18374;51.136;3.502;2023-04-15T02:50:37;11.77;;;8.32;;
31798;SDS011;18374;51.136;3.502;2023-04-15T02:53:08;11.27;;;7.60;;
31798;SDS011;18374;51.136;3.502;2023-04-15T02:55:36;10.45;;;6.97;;
31798;SDS011;18374;51.136;3.502;2023-04-15T02:58:04;10.82;;;6.88;;
31798;SDS011;18374;51.136;3.502;2023-04-15T03:00:32;11.35;;;7.30;;
31798;SDS011;18374;51.136;3.502;2023-04-15T03:03:03;11.50;;;7.15;;
31798;SDS011;18374;51.136;3.502;2023-04-15T03:05:32;13.85;;;7.65;;
31798;SDS011;18374;51.136;3.502;2023-04-15T03:08:03;12.63;;;7.93;;
31798;SDS011;18374;51.136;3.502;2023-04-15T03:10:31;14.43;;;8.98;;
31798;SDS011;18374;51.136;3.502;2023-04-15T03:13:00;13.45;;;8.07;;
31798;SDS011;18374;51.136;3.502;2023-04-15T03:15:28;15.15;;;8.30;;
31798;SDS011;18374;51.136;3.502;2023-04-15T03:17:56;15.18;;;9.07;;
31798;SDS011;18374;51.136;3.502;2023-04-15T03:20:24;16.33;;;9.38;;
31798;SDS011;18374;51.136;3.502;2023-04-15T03:22:51;18.30;;;9.63;;
31798;SDS011;18374;51.136;3.502;2023-04-15T03:25:21;18.08;;;8.95;;
31798;SDS011;18374;51.136;3.502;2023-04-15T03:27:49;15.75;;;9.55;;
31798;SDS011;18374;51.136;3.502;2023-04-15T03:30:17;17.58;;;9.55;;
31798;SDS011;18374;51.136;3.502;2023-04-15T03:32:45;16.83;;;9.65;;
31798;SDS011;18374;51.136;3.502;2023-04-15T03:35:13;20.20;;;10.60;;
31798;SDS011;18374;51.136;3.502;2023-04-15T03:37:41;15.93;;;10.05;;
31798;SDS011;18374;51.136;3.502;2023-04-15T03:40:09;18.27;;;10.07;;
31798;SDS011;18374;51.136;3.502;2023-04-15T03:42:38;21.85;;;10.38;;
31798;SDS011;18374;51.136;3.502;2023-04-15T03:45:05;16.60;;;10.15;;
31798;SDS011;18374;51.136;3.502;2023-04-15T03:47:34;19.77;;;10.95;;
31798;SDS011;18374;51.136;3.502;2023-04-15T03:50:01;22.40;;;10.40;;
31798;SDS011;18374;51.136;3.502;2023-04-15T03:52:30;20.02;;;11.02;;
31798;SDS011;18374;51.136;3.502;2023-04-15T03:54:57;19.85;;;10.63;;
31798;SDS011;18374;51.136;3.502;2023-04-15T03:57:25;19.48;;;10.90;;
31798;SDS011;18374;51.136;3.502;2023-04-15T03:59:53;20.15;;;11.48;;
31798;SDS011;18374;51.136;3.502;2023-04-15T04:02:21;17.73;;;10.40;;
31798;SDS011;18374;51.136;3.502;2023-04-15T04:04:49;23.38;;;12.13;;
31798;SDS011;18374;51.136;3.502;2023-04-15T04:07:17;18.40;;;11.73;;
31798;SDS011;18374;51.136;3.502;2023-04-15T04:09:45;23.15;;;12.40;;
31798;SDS011;18374;51.136;3.502;2023-04-15T04:12:13;20.63;;;12.30;;
31798;SDS011;18374;51.136;3.502;2023-04-15T04:14:41;25.67;;;14.27;;
31798;SDS011;18374;51.136;3.502;2023-04-15T04:17:08;26.85;;;14.18;;
31798;SDS011;18374;51.136;3.502;2023-04-15T04:19:36;23.38;;;13.48;;
31798;SDS011;18374;51.136;3.502;2023-04-15T04:22:04;25.75;;;14.48;;
31798;SDS011;18374;51.136;3.502;2023-04-15T04:24:32;23.58;;;15.07;;
31798;SDS011;18374;51.136;3.502;2023-04-15T04:27:00;25.35;;;14.93;;
31798;SDS011;18374;51.136;3.502;2023-04-15T04:29:28;30.75;;;16.08;;
31798;SDS011;18374;51.136;3.502;2023-04-15T04:31:55;30.63;;;17.27;;
31798;SDS011;18374;51.136;3.502;2023-04-15T04:34:23;28.50;;;17.00;;
31798;SDS011;18374;51.136;3.502;2023-04-15T04:36:51;34.63;;;19.55;;
31798;SDS011;18374;51.136;3.502;2023-04-15T04:39:19;33.00;;;19.35;;
31798;SDS011;18374;51.136;3.502;2023-04-15T04:41:47;36.03;;;20.60;;
31798;SDS011;18374;51.136;3.502;2023-04-15T04:44:15;38.55;;;21.13;;
31798;SDS011;18374;51.136;3.502;2023-04-15T04:46:43;34.90;;;20.45;;
31798;SDS011;18374;51.136;3.502;2023-04-15T04:49:11;35.95;;;20.95;;
31798;SDS011;18374;51.136;3.502;2023-04-15T04:51:38;38.60;;;21.23;;
31798;SDS011;18374;51.136;3.502;2023-04-15T04:54:06;38.20;;;21.58;;
31798;SDS011;18374;51.136;3.502;2023-04-15T04:56:34;39.53;;;21.92;;
31798;SDS011;18374;51.136;3.502;2023-04-15T04:59:02;36.00;;;20.85;;
31798;SDS011;18374;51.136;3.502;2023-04-15T05:01:29;43.25;;;21.40;;
31798;SDS011;18374;51.136;3.502;2023-04-15T05:03:57;37.97;;;20.55;;
31798;SDS011;18374;51.136;3.502;2023-04-15T05:06:26;36.60;;;20.67;;
31798;SDS011;18374;51.136;3.502;2023-04-15T05:08:56;39.25;;;21.50;;
31798;SDS011;18374;51.136;3.502;2023-04-15T05:11:24;44.38;;;21.92;;
31798;SDS011;18374;51.136;3.502;2023-04-15T05:13:52;43.20;;;21.55;;
31798;SDS011;18374;51.136;3.502;2023-04-15T05:16:19;38.90;;;21.05;;
31798;SDS011;18374;51.136;3.502;2023-04-15T05:18:47;38.65;;;22.38;;
31798;SDS011;18374;51.136;3.502;2023-04-15T05:21:15;37.65;;;20.67;;
31798;SDS011;18374;51.136;3.502;2023-04-15T05:23:43;40.67;;;21.25;;
31798;SDS011;18374;51.136;3.502;2023-04-15T05:26:11;40.03;;;21.75;;
31798;SDS011;18374;51.136;3.502;2023-04-15T05:28:38;37.20;;;21.70;;
31798;SDS011;18374;51.136;3.502;2023-04-15T05:31:06;41.50;;;23.40;;
31798;SDS011;18374;51.136;3.502;2023-04-15T05:33:34;40.78;;;23.55;;
31798;SDS011;18374;51.136;3.502;2023-04-15T05:36:03;38.13;;;22.00;;
31798;SDS011;18374;51.136;3.502;2023-04-15T05:38:30;44.13;;;24.77;;
31798;SDS011;18374;51.136;3.502;2023-04-15T05:40:58;38.83;;;23.92;;
31798;SDS011;18374;51.136;3.502;2023-04-15T05:43:26;44.60;;;25.85;;
31798;SDS011;18374;51.136;3.502;2023-04-15T05:45:54;50.10;;;24.92;;
31798;SDS011;18374;51.136;3.502;2023-04-15T05:48:22;46.00;;;25.08;;
31798;SDS011;18374;51.136;3.502;2023-04-15T05:50:50;48.08;;;25.58;;
31798;SDS011;18374;51.136;3.502;2023-04-15T05:53:17;41.97;;;24.65;;
31798;SDS011;18374;51.136;3.502;2023-04-15T05:55:45;44.92;;;24.52;;
31798;SDS011;18374;51.136;3.502;2023-04-15T05:58:13;50.53;;;26.13;;
31798;SDS011;18374;51.136;3.502;2023-04-15T06:00:40;41.30;;;23.58;;
31798;SDS011;18374;51.136;3.502;2023-04-15T06:03:08;46.05;;;24.63;;
31798;SDS011;18374;51.136;3.502;2023-04-15T06:05:37;46.83;;;23.98;;
31798;SDS011;18374;51.136;3.502;2023-04-15T06:08:06;43.13;;;22.42;;
31798;SDS011;18374;51.136;3.502;2023-04-15T06:10:34;40.80;;;23.67;;
31798;SDS011;18374;51.136;3.502;2023-04-15T06:13:03;43.83;;;23.40;;
31798;SDS011;18374;51.136;3.502;2023-04-15T06:15:30;38.92;;;23.92;;
31798;SDS011;18374;51.136;3.502;2023-04-15T06:17:58;43.13;;;24.77;;
31798;SDS011;18374;51.136;3.502;2023-04-15T06:20:26;39.13;;;23.23;;
31798;SDS011;18374;51.136;3.502;2023-04-15T06:22:54;40.25;;;22.38;;
31798;SDS011;18374;51.136;3.502;2023-04-15T06:25:22;35.38;;;21.15;;
31798;SDS011;18374;51.136;3.502;2023-04-15T06:27:50;37.80;;;21.33;;
31798;SDS011;18374;51.136;3.502;2023-04-15T06:30:17;39.90;;;22.65;;
31798;SDS011;18374;51.136;3.502;2023-04-15T06:32:45;39.90;;;22.63;;
31798;SDS011;18374;51.136;3.502;2023-04-15T06:35:13;39.42;;;22.02;;
31798;SDS011;18374;51.136;3.502;2023-04-15T06:37:41;36.67;;;21.85;;
31798;SDS011;18374;51.136;3.502;2023-04-15T06:40:09;33.00;;;20.60;;
31798;SDS011;18374;51.136;3.502;2023-04-15T06:42:37;39.92;;;22.35;;
31798;SDS011;18374;51.136;3.502;2023-04-15T06:45:05;33.92;;;19.98;;
31798;SDS011;18374;51.136;3.502;2023-04-15T06:47:34;31.98;;;19.25;;
31798;SDS011;18374;51.136;3.502;2023-04-15T06:50:02;32.75;;;18.55;;
31798;SDS011;18374;51.136;3.502;2023-04-15T06:52:30;28.90;;;17.88;;
31798;SDS011;18374;51.136;3.502;2023-04-15T06:54:58;29.95;;;18.08;;
31798;SDS011;18374;51.136;3.502;2023-04-15T06:57:27;31.25;;;17.83;;
31798;SDS011;18374;51.136;3.502;2023-04-15T06:59:55;28.00;;;17.55;;
31798;SDS011;18374;51.136;3.502;2023-04-15T07:02:23;28.67;;;15.60;;
31798;SDS011;18374;51.136;3.502;2023-04-15T07:04:51;24.52;;;14.23;;
31798;SDS011;18374;51.136;3.502;2023-04-15T07:07:18;20.95;;;13.95;;
31798;SDS011;18374;51.136;3.502;2023-04-15T07:09:46;25.73;;;14.05;;
31798;SDS011;18374;51.136;3.502;2023-04-15T07:12:14;21.58;;;12.88;;
31798;SDS011;18374;51.136;3.502;2023-04-15T07:14:42;23.48;;;12.63;;
31798;SDS011;18374;51.136;3.502;2023-04-15T07:17:09;25.08;;;12.52;;
31798;SDS011;18374;51.136;3.502;2023-04-15T07:19:38;22.20;;;11.13;;
31798;SDS011;18374;51.136;3.502;2023-04-15T07:22:05;17.17;;;10.98;;
31798;SDS011;18374;51.136;3.502;2023-04-15T07:24:33;17.73;;;10.13;;
31798;SDS011;18374;51.136;3.502;2023-04-15T07:27:01;15.25;;;9.75;;
31798;SDS011;18374;51.136;3.502;2023-04-15T07:29:30;15.65;;;9.75;;
31798;SDS011;18374;51.136;3.502;2023-04-15T07:31:58;14.80;;;9.95;;
31798;SDS011;18374;51.136;3.502;2023-04-15T07:34:26;10.85;;;6.57;;
31798;SDS011;18374;51.136;3.502;2023-04-15T07:36:57;10.73;;;6.45;;
31798;SDS011;18374;51.136;3.502;2023-04-15T07:39:24;14.80;;;8.43;;
31798;SDS011;18374;51.136;3.502;2023-04-15T07:41:53;20.65;;;10.45;;
31798;SDS011;18374;51.136;3.502;2023-04-15T07:44:20;20.13;;;11.45;;
31798;SDS011;18374;51.136;3.502;2023-04-15T07:46:48;16.73;;;10.88;;
31798;SDS011;18374;51.136;3.502;2023-04-15T07:49:16;18.80;;;11.52;;
31798;SDS011;18374;51.136;3.502;2023-04-15T07:51:45;19.83;;;12.65;;
31798;SDS011;18374;51.136;3.502;2023-04-15T07:54:13;20.33;;;12.68;;
31798;SDS011;18374;51.136;3.502;2023-04-15T07:56:41;19.33;;;13.32;;
31798;SDS011;18374;51.136;3.502;2023-04-15T07:59:09;20.73;;;13.32;;
31798;SDS011;18374;51.136;3.502;2023-04-15T08:01:37;24.13;;;14.13;;
31798;SDS011;18374;51.136;3.502;2023-04-15T08:04:05;24.65;;;14.15;;
31798;SDS011;18374;51.136;3.502;2023-04-15T08:06:33;22.77;;;13.75;;
31798;SDS011;18374;51.136;3.502;2023-04-15T08:09:01;19.42;;;13.60;;
31798;SDS011;18374;51.136;3.502;2023-04-15T08:11:29;21.88;;;13.40;;
31798;SDS011;18374;51.136;3.502;2023-04-15T08:13:57;24.48;;;13.45;;
31798;SDS011;18374;51.136;3.502;2023-04-15T08:16:25;20.45;;;13.70;;
31798;SDS011;18374;51.136;3.502;2023-04-15T08:18:56;17.27;;;11.48;;
31798;SDS011;18374;51.136;3.502;2023-04-15T08:21:24;19.15;;;12.23;;
31798;SDS011;18374;51.136;3.502;2023-04-15T08:23:53;18.88;;;12.63;;
31798;SDS011;18374;51.136;3.502;2023-04-15T08:26:21;22.33;;;13.18;;
31798;SDS011;18374;51.136;3.502;2023-04-15T08:28:49;19.27;;;13.30;;
31798;SDS011;18374;51.136;3.502;2023-04-15T08:31:17;21.17;;;13.18;;
31798;SDS011;18374;51.136;3.502;2023-04-15T08:33:46;21.33;;;12.35;;
31798;SDS011;18374;51.136;3.502;2023-04-15T08:36:13;19.48;;;12.57;;
31798;SDS011;18374;51.136;3.502;2023-04-15T08:38:41;19.40;;;12.07;;
31798;SDS011;18374;51.136;3.502;2023-04-15T08:41:11;17.70;;;11.65;;
31798;SDS011;18374;51.136;3.502;2023-04-15T08:43:58;24.30;;;11.75;;
31798;SDS011;18374;51.136;3.502;2023-04-15T08:46:30;21.73;;;11.32;;
31798;SDS011;18374;51.136;3.502;2023-04-15T08:49:02;16.60;;;11.52;;
31798;SDS011;18374;51.136;3.502;2023-04-15T08:51:31;17.48;;;11.90;;
31798;SDS011;18374;51.136;3.502;2023-04-15T08:53:59;20.55;;;10.85;;
31798;SDS011;18374;51.136;3.502;2023-04-15T08:56:29;21.85;;;12.27;;
31798;SDS011;18374;51.136;3.502;2023-04-15T08:59:01;20.15;;;11.35;;
31798;SDS011;18374;51.136;3.502;2023-04-15T09:01:30;19.77;;;11.05;;
31798;SDS011;18374;51.136;3.502;2023-04-15T09:03:59;16.55;;;11.05;;
31798;SDS011;18374;51.136;3.502;2023-04-15T09:06:29;20.85;;;11.25;;
31798;SDS011;18374;51.136;3.502;2023-04-15T09:08:57;17.40;;;10.80;;
31798;SDS011;18374;51.136;3.502;2023-04-15T09:11:26;16.70;;;10.05;;
31798;SDS011;18374;51.136;3.502;2023-04-15T09:13:53;14.85;;;10.63;;
31798;SDS011;18374;51.136;3.502;2023-04-15T09:16:22;15.10;;;10.18;;
31798;SDS011;18374;51.136;3.502;2023-04-15T09:18:50;14.90;;;10.05;;
31798;SDS011;18374;51.136;3.502;2023-04-15T09:21:19;18.95;;;10.05;;
31798;SDS011;18374;51.136;3.502;2023-04-15T09:23:53;20.25;;;10.45;;
31798;SDS011;18374;51.136;3.502;2023-04-15T09:26:34;13.67;;;9.47;;
31798;SDS011;18374;51.136;3.502;2023-04-15T09:29:05;19.33;;;11.35;;
31798;SDS011;18374;51.136;3.502;2023-04-15T09:31:39;17.70;;;10.80;;
31798;SDS011;18374;51.136;3.502;2023-04-15T09:34:08;14.75;;;10.15;;
31798;SDS011;18374;51.136;3.502;2023-04-15T09:39:16;14.75;;;9.23;;
31798;SDS011;18374;51.136;3.502;2023-04-15T09:41:44;15.48;;;10.82;;
31798;SDS011;18374;51.136;3.502;2023-04-15T09:44:22;14.13;;;9.80;;
31798;SDS011;18374;51.136;3.502;2023-04-15T09:46:51;15.55;;;10.02;;
31798;SDS011;18374;51.136;3.502;2023-04-15T09:49:18;16.35;;;9.63;;
31798;SDS011;18374;51.136;3.502;2023-04-15T09:51:47;15.40;;;9.55;;
31798;SDS011;18374;51.136;3.502;2023-04-15T09:54:34;13.30;;;9.88;;
31798;SDS011;18374;51.136;3.502;2023-04-15T09:57:04;12.55;;;9.07;;
31798;SDS011;18374;51.136;3.502;2023-04-15T09:59:36;13.02;;;8.23;;
31798;SDS011;18374;51.136;3.502;2023-04-15T10:02:04;13.70;;;7.65;;
31798;SDS011;18374;51.136;3.502;2023-04-15T10:04:39;10.70;;;6.75;;
31798;SDS011;18374;51.136;3.502;2023-04-15T10:07:08;9.80;;;5.93;;
31798;SDS011;18374;51.136;3.502;2023-04-15T10:09:37;13.48;;;7.05;;
31798;SDS011;18374;51.136;3.502;2023-04-15T10:12:05;11.27;;;6.75;;
31798;SDS011;18374;51.136;3.502;2023-04-15T10:14:34;10.57;;;6.60;;
31798;SDS011;18374;51.136;3.502;2023-04-15T10:17:05;11.50;;;7.22;;
31798;SDS011;18374;51.136;3.502;2023-04-15T10:19:39;12.80;;;7.05;;
31798;SDS011;18374;51.136;3.502;2023-04-15T10:22:08;16.40;;;7.60;;
31798;SDS011;18374;51.136;3.502;2023-04-15T10:24:36;11.93;;;7.20;;
31798;SDS011;18374;51.136;3.502;2023-04-15T10:27:06;11.65;;;6.38;;
31798;SDS011;18374;51.136;3.502;2023-04-15T10:29:34;16.92;;;6.90;;
31798;SDS011;18374;51.136;3.502;2023-04-15T10:32:03;8.95;;;6.47;;
31798;SDS011;18374;51.136;3.502;2023-04-15T10:34:31;12.68;;;6.40;;
31798;SDS011;18374;51.136;3.502;2023-04-15T10:37:00;9.70;;;6.68;;
31798;SDS011;18374;51.136;3.502;2023-04-15T10:42:06;9.93;;;7.20;;
31798;SDS011;18374;51.136;3.502;2023-04-15T10:44:43;11.00;;;7.13;;
31798;SDS011;18374;51.136;3.502;2023-04-15T10:47:15;8.00;;;5.20;;
31798;SDS011;18374;51.136;3.502;2023-04-15T10:49:47;8.43;;;4.55;;
31798;SDS011;18374;51.136;3.502;2023-04-15T10:52:21;6.43;;;4.75;;
31798;SDS011;18374;51.136;3.502;2023-04-15T10:55:01;8.70;;;4.07;;
31798;SDS011;18374;51.136;3.502;2023-04-15T10:57:39;6.78;;;3.40;;
31798;SDS011;18374;51.136;3.502;2023-04-15T11:00:14;5.35;;;3.38;;
31798;SDS011;18374;51.136;3.502;2023-04-15T11:02:54;5.60;;;3.63;;
31798;SDS011;18374;51.136;3.502;2023-04-15T11:08:07;7.18;;;4.25;;
31798;SDS011;18374;51.136;3.502;2023-04-15T11:13:06;9.98;;;3.75;;
31798;SDS011;18374;51.136;3.502;2023-04-15T11:15:43;4.93;;;2.70;;
31798;SDS011;18374;51.136;3.502;2023-04-15T11:18:26;8.07;;;2.83;;
31798;SDS011;18374;51.136;3.502;2023-04-15T11:21:00;5.22;;;3.33;;
31798;SDS011;18374;51.136;3.502;2023-04-15T11:23:31;4.53;;;3.65;;
31798;SDS011;18374;51.136;3.502;2023-04-15T11:26:07;7.65;;;4.20;;
31798;SDS011;18374;51.136;3.502;2023-04-15T11:28:39;6.78;;;3.63;;
31798;SDS011;18374;51.136;3.502;2023-04-15T11:31:15;6.68;;;4.38;;
31798;SDS011;18374;51.136;3.502;2023-04-15T11:33:53;4.47;;;3.15;;
31798;SDS011;18374;51.136;3.502;2023-04-15T11:36:26;9.57;;;4.60;;
31798;SDS011;18374;51.136;3.502;2023-04-15T11:38:58;8.02;;;4.45;;
31798;SDS011;18374;51.136;3.502;2023-04-15T11:41:26;6.95;;;3.92;;
31798;SDS011;18374;51.136;3.502;2023-04-15T11:43:54;6.45;;;4.80;;
31798;SDS011;18374;51.136;3.502;2023-04-15T11:46:27;8.38;;;4.95;;
31798;SDS011;18374;51.136;3.502;2023-04-15T11:48:58;8.35;;;5.53;;
31798;SDS011;18374;51.136;3.502;2023-04-15T11:51:26;7.13;;;4.22;;
31798;SDS011;18374;51.136;3.502;2023-04-15T11:54:00;6.70;;;3.90;;
31798;SDS011;18374;51.136;3.502;2023-04-15T11:56:29;4.90;;;3.50;;
31798;SDS011;18374;51.136;3.502;2023-04-15T11:58:58;4.13;;;3.08;;
31798;SDS011;18374;51.136;3.502;2023-04-15T12:01:32;5.78;;;3.78;;
31798;SDS011;18374;51.136;3.502;2023-04-15T12:04:09;6.93;;;3.60;;
31798;SDS011;18374;51.136;3.502;2023-04-15T12:06:39;6.05;;;4.32;;
31798;SDS011;18374;51.136;3.502;2023-04-15T12:11:40;6.93;;;4.50;;
31798;SDS011;18374;51.136;3.502;2023-04-15T12:16:43;4.65;;;3.97;;
31798;SDS011;18374;51.136;3.502;2023-04-15T12:19:17;6.95;;;4.22;;
31798;SDS011;18374;51.136;3.502;2023-04-15T12:21:56;6.72;;;4.18;;
31798;SDS011;18374;51.136;3.502;2023-04-15T12:24:39;6.32;;;3.90;;
31798;SDS011;18374;51.136;3.502;2023-04-15T12:27:11;5.97;;;3.15;;
31798;SDS011;18374;51.136;3.502;2023-04-15T12:29:41;5.63;;;3.55;;
31798;SDS011;18374;51.136;3.502;2023-04-15T12:32:13;7.15;;;3.75;;
31798;SDS011;18374;51.136;3.502;2023-04-15T12:39:46;5.90;;;4.00;;
31798;SDS011;18374;51.136;3.502;2023-04-15T12:42:16;7.82;;;5.10;;
31798;SDS011;18374;51.136;3.502;2023-04-15T12:44:44;8.25;;;5.43;;
31798;SDS011;18374;51.136;3.502;2023-04-15T12:47:13;9.80;;;5.13;;
31798;SDS011;18374;51.136;3.502;2023-04-15T12:49:41;9.75;;;5.90;;
31798;SDS011;18374;51.136;3.502;2023-04-15T12:52:09;6.55;;;4.93;;
31798;SDS011;18374;51.136;3.502;2023-04-15T12:54:36;8.50;;;5.20;;
31798;SDS011;18374;51.136;3.502;2023-04-15T12:57:05;5.18;;;4.13;;
31798;SDS011;18374;51.136;3.502;2023-04-15T12:59:34;6.40;;;4.22;;
31798;SDS011;18374;51.136;3.502;2023-04-15T13:02:02;12.32;;;4.38;;
31798;SDS011;18374;51.136;3.502;2023-04-15T13:04:30;6.05;;;4.30;;
31798;SDS011;18374;51.136;3.502;2023-04-15T13:06:58;10.35;;;6.10;;
31798;SDS011;18374;51.136;3.502;2023-04-15T13:09:27;16.08;;;7.75;;
31798;SDS011;18374;51.136;3.502;2023-04-15T13:11:55;13.77;;;7.93;;
31798;SDS011;18374;51.136;3.502;2023-04-15T13:14:24;16.85;;;7.35;;
31798;SDS011;18374;51.136;3.502;2023-04-15T13:16:51;12.73;;;7.57;;
31798;SDS011;18374;51.136;3.502;2023-04-15T13:19:19;10.68;;;7.35;;
31798;SDS011;18374;51.136;3.502;2023-04-15T13:21:47;11.43;;;6.88;;
31798;SDS011;18374;51.136;3.502;2023-04-15T13:24:15;9.13;;;6.82;;
31798;SDS011;18374;51.136;3.502;2023-04-15T13:26:43;11.18;;;7.70;;
31798;SDS011;18374;51.136;3.502;2023-04-15T13:29:11;11.75;;;7.22;;
31798;SDS011;18374;51.136;3.502;2023-04-15T13:31:40;12.63;;;7.22;;
31798;SDS011;18374;51.136;3.502;2023-04-15T13:34:07;11.95;;;7.05;;
31798;SDS011;18374;51.136;3.502;2023-04-15T13:36:35;11.52;;;7.05;;
31798;SDS011;18374;51.136;3.502;2023-04-15T13:39:03;9.15;;;6.28;;
31798;SDS011;18374;51.136;3.502;2023-04-15T13:41:31;11.20;;;6.95;;
31798;SDS011;18374;51.136;3.502;2023-04-15T13:43:59;11.80;;;6.90;;
31798;SDS011;18374;51.136;3.502;2023-04-15T13:46:27;13.18;;;7.28;;
31798;SDS011;18374;51.136;3.502;2023-04-15T13:48:54;11.00;;;6.78;;
31798;SDS011;18374;51.136;3.502;2023-04-15T13:51:22;10.90;;;6.90;;
31798;SDS011;18374;51.136;3.502;2023-04-15T13:53:50;11.35;;;5.97;;
31798;SDS011;18374;51.136;3.502;2023-04-15T13:56:18;12.43;;;7.10;;
31798;SDS011;18374;51.136;3.502;2023-04-15T13:58:45;11.38;;;6.50;;
31798;SDS011;18374;51.136;3.502;2023-04-15T14:01:13;12.18;;;6.60;;
31798;SDS011;18374;51.136;3.502;2023-04-15T14:03:41;9.05;;;6.10;;
31798;SDS011;18374;51.136;3.502;2023-04-15T14:06:09;7.57;;;5.55;;
31798;SDS011;18374;51.136;3.502;2023-04-15T14:08:37;10.80;;;5.82;;
31798;SDS011;18374;51.136;3.502;2023-04-15T14:11:05;11.13;;;5.70;;
31798;SDS011;18374;51.136;3.502;2023-04-15T14:13:33;9.27;;;5.40;;
31798;SDS011;18374;51.136;3.502;2023-04-15T14:16:00;9.48;;;5.35;;
31798;SDS011;18374;51.136;3.502;2023-04-15T14:18:28;6.82;;;4.60;;
31798;SDS011;18374;51.136;3.502;2023-04-15T14:20:56;6.13;;;4.38;;
31798;SDS011;18374;51.136;3.502;2023-04-15T14:23:24;8.48;;;4.47;;
31798;SDS011;18374;51.136;3.502;2023-04-15T14:25:52;5.82;;;3.95;;
31798;SDS011;18374;51.136;3.502;2023-04-15T14:28:19;5.20;;;3.50;;
31798;SDS011;18374;51.136;3.502;2023-04-15T14:30:47;7.45;;;3.47;;
31798;SDS011;18374;51.136;3.502;2023-04-15T14:33:15;8.23;;;3.28;;
31798;SDS011;18374;51.136;3.502;2023-04-15T14:35:43;7.72;;;3.55;;
31798;SDS011;18374;51.136;3.502;2023-04-15T14:38:10;7.22;;;3.67;;
31798;SDS011;18374;51.136;3.502;2023-04-15T14:40:39;6.85;;;3.10;;
31798;SDS011;18374;51.136;3.502;2023-04-15T14:43:07;5.43;;;3.15;;
31798;SDS011;18374;51.136;3.502;2023-04-15T14:45:36;7.68;;;2.58;;
31798;SDS011;18374;51.136;3.502;2023-04-15T14:48:09;5.63;;;2.40;;
31798;SDS011;18374;51.136;3.502;2023-04-15T14:50:39;3.85;;;2.10;;
31798;SDS011;18374;51.136;3.502;2023-04-15T14:53:06;5.43;;;1.83;;
31798;SDS011;18374;51.136;3.502;2023-04-15T14:55:34;5.05;;;1.75;;
31798;SDS011;18374;51.136;3.502;2023-04-15T14:58:02;2.72;;;1.23;;
31798;SDS011;18374;51.136;3.502;2023-04-15T15:00:30;3.60;;;1.73;;
31798;SDS011;18374;51.136;3.502;2023-04-15T15:02:58;5.07;;;1.52;;
31798;SDS011;18374;51.136;3.502;2023-04-15T15:05:26;3.20;;;1.83;;